x

East Lake Ontario - 20nm North Northeast Of Rochester, Ny (45012) Wave Buoy

1:50am - Fri 26th Aug 2016 All times are CDT. -5 hours from GMT.

  • Sig Wave height 1.0ft
  • Swell Direction
  • Peak Period 3s
  • Average Period 3s
  • Wind
    13mph, 16mph gusts
  • Sea Temp 73°f
  • Air Temp 73°f
  • Sea Pressure 1012.9mb
  • East Lake Ontario  - 20nm North Northeast Of Rochester, Ny
  • East Lake Ontario  - 20nm North Northeast Of Rochester, Ny

More Historic Weather Station data

Upgrade to MSW Pro to gain access to the past 30 days of data for over 8000 Wavebouys and Weather Stations around the globe.

Join Pro

Comparision Forecast

View Surf forecast
   
Fri 08/26 1:50am 1ft 3s 3s 13 16 mph 1012.9mb 73f 73f
12:50am 1ft 4s 3s 9
mph
1012.6mb 73f 73f
Thu 08/25 11:50pm 1ft 4s 3s 7
mph
1012.8mb 72f 73f
10:50pm 1.3ft 4s 3s 9
mph
1012.6mb 72f 73f
9:50pm 1.3ft 4s 3s 7
mph
1012.5mb 72f 73f
8:50pm 1.3ft 3s 3s 4 7 mph 1012.8mb 72f 73f
7:50pm 1ft 3s 3s 11 13 mph 1012.8mb 72f 73f
6:50pm 0.7ft  -  3s 11
mph
1012.9mb 72f 75f
5:50pm 0.7ft  -  3s 9 11 mph 1012.8mb 73f 75f
4:50pm 1ft 3s 3s 7 9 mph 1012.6mb 73f 74f
3:50pm 0.7ft  -  3s 9 11 mph 1012.3mb 73f 75f
2:50pm 0.7ft  -  3s 9 11 mph 1012.6mb 73f 74f
1:50pm 1ft 3s 3s 7 9 mph 1012.9mb 72f 74f
12:50pm 1ft 3s 3s 9 11 mph 1013.1mb 72f 74f
11:50am 1ft 4s 3s 9 11 mph 1013.4mb 71f 73f
10:50am 1.3ft 4s 3s 9
mph
1013.6mb 71f 72f
9:50am 1.6ft 4s 3s 9 11 mph 1013.6mb 71f 72f
8:50am 2ft 4s 3s 11 13 mph 1013.2mb 71f 71f
7:50am 2ft 4s 3s 13 16 mph 1013.3mb 71f 72f
6:50am 2.5ft 4s 4s 16 18 mph 1013.1mb 71f 72f
5:50am 2ft 4s 3s 20 25 mph 1013mb 71f 71f
4:50am 1.6ft 4s 3s 13 18 mph 1013.2mb 72f 73f
3:50am 1.3ft 3s 3s 9 13 mph 1013mb 72f 73f
2:50am 1ft 3s 3s 13 16 mph 1013.1mb 72f 73f
1:50am 1ft 3s 3s 13 16 mph 1013.4mb 72f 74f
12:50am 0.3ft  -  2s 13 16 mph 1014mb 72f 74f
Wed 08/24 11:50pm 0.3ft  -  3s 13
mph
1014.7mb 72f 75f
9:50pm 0.3ft  -  3s 9
mph
1016mb 72f 74f
8:50pm  -   -   -  7
mph
1016.4mb 72f 73f
7:50pm 0.3ft  -  3s 4
mph
1016.7mb 73f 73f
6:50pm 0.3ft  -  3s 4
mph
1016.7mb 73f 73f
5:50pm 0.3ft  -  3s 4 7 mph 1016.9mb 73f 73f
4:50pm 0.3ft  -  3s 4 7 mph 1017.6mb 73f 74f
3:50pm 0.3ft  -  3s 7
mph
1017.8mb 73f 74f
2:50pm 0.7ft  -  3s 4 7 mph 1018.6mb 73f 74f
1:50pm 0.7ft  -  3s 7
mph
1019.4mb 72f 73f
12:50pm 0.7ft  -  3s 7
mph
1020.2mb 72f 71f
11:50am 0.7ft  -   -  4
mph
1021.1mb 71f 72f
10:50am 1ft 3s 3s 7 9 mph 1021.9mb 71f 71f
9:50am 1ft 3s 3s 7 9 mph 1022.5mb 71f 71f
8:50am 1ft 3s 3s 9 11 mph 1022.6mb 70f 70f
7:50am 1ft 3s 3s 11 13 mph 1023.1mb 70f 70f
6:50am 1.3ft 4s 3s 11 13 mph 1023.2mb 70f 69f
5:50am 1.3ft 4s 3s 11 13 mph 1023.2mb 69f 70f
4:50am 1.3ft 3s 3s 11 13 mph 1022.7mb 69f 70f
3:50am 1.6ft 4s 3s 11 13 mph 1022.3mb 69f 70f
2:50am 1.3ft 4s 3s 11 13 mph 1022.2mb 70f 70f
1:50am 1ft 3s 3s 11 13 mph 1022.1mb 70f 71f
12:50am 1ft 4s 3s 11 13 mph 1022.6mb 71f 72f
Tue 08/23 11:50pm 0.7ft  -  3s 11 13 mph 1023.1mb 71f 72f
10:50pm 0.7ft  -  3s 11 13 mph 1023mb 71f 73f
9:50pm 0.7ft  -  3s 9
mph
1023.2mb 71f 72f
8:50pm 0.3ft  -  3s 9
mph
1023.1mb 71f 72f
7:50pm 0.3ft  -  3s 7
mph
1022.9mb 71f 72f
6:50pm 0.3ft  -  3s 7
mph
1022.7mb 72f 72f
5:50pm 0.7ft  -  3s 7
mph
1022.6mb 72f 73f
4:50pm 0.7ft  -  3s 4
mph
1023mb 71f 73f
3:50pm 0.7ft  -  3s 4 7 mph 1023.2mb 71f 73f
2:50pm 1ft 3s 3s 7 9 mph 1023.6mb 71f 72f
1:50pm 1.3ft 4s 3s 7 9 mph 1024.1mb 70f 71f
12:50pm 1.6ft 4s 3s 9
mph
1024.3mb 70f 71f
11:50am 1.6ft 4s 3s 7 9 mph 1024.4mb 70f 71f
10:50am 1.6ft 4s 3s 11 13 mph 1024.5mb 69f 70f
9:50am 1.6ft 4s 3s 13 16 mph 1024.6mb 70f 69f
8:50am 1.3ft 4s 3s 13 16 mph 1024.8mb 69f 68f
7:50am 1ft 3s 3s 13 16 mph 1024.8mb 69f 68f
6:50am 0.7ft  -  3s 11 13 mph 1024.8mb 69f 67f
5:50am 0.7ft  -  3s 11
mph
1024.7mb 69f 67f
4:50am 0.3ft  -  3s 11 13 mph 1024.3mb 69f 68f
3:50am 0.3ft  -  3s 9
mph
1023.9mb 69f 69f
2:50am 0.7ft  -  3s 7
mph
1023.7mb 69f 69f
1:50am 1ft 3s 3s 7
mph
1023.5mb 69f 69f
12:50am 1.3ft 4s 3s 4 7 mph 1023.1mb 69f 69f
Mon 08/22 11:50pm 1.6ft 4s 3s 4 7 mph 1022.5mb 69f 69f
10:50pm 1.6ft 4s 4s 7 9 mph 1022.4mb 69f 70f
9:50pm 2ft 4s 4s 11
mph
1022.3mb 69f 70f
8:50pm 2ft 4s 4s 11 13 mph 1021.7mb 70f 71f
7:50pm 2ft 4s 3s 16 18 mph 1021mb 70f 70f
6:50pm 1.6ft 4s 3s 16 18 mph 1020.6mb 70f 69f
5:50pm 1.3ft 3s 3s 16 18 mph 1020.4mb 70f 69f
4:50pm 1ft 3s 3s 13 16 mph 1020.2mb 70f 69f
3:50pm 0.7ft  -  3s 13 16 mph 1020.3mb 70f 68f
2:50pm 0.7ft  -  3s 11 13 mph 1020.5mb 70f 67f
1:50pm 0.7ft  -  3s 11 13 mph 1020.8mb 70f 66f
12:50pm 1ft 3s 3s 7 9 mph 1020.9mb 69f 64f
11:50am 1ft 4s 3s 4 7 mph 1020.8mb 69f 64f
10:50am 1.3ft 4s 3s 4 7 mph 1020.8mb 69f 63f
9:50am 1.6ft 4s 4s 4 9 mph 1020.5mb 68f 62f
8:50am 2.5ft 4s 4s 9 11 mph 1019.6mb 68f 62f
7:50am 2.5ft 4s 4s 13 16 mph 1019.1mb 69f 61f